createdAt,value
2018-12-10T00:00:36.703Z,8.2
2018-12-10T00:10:41.616Z,8.1
2018-12-10T00:20:45.303Z,7.9
2018-12-10T00:30:48.705Z,8
2018-12-10T00:40:52.120Z,8.1
2018-12-10T00:50:55.533Z,8
2018-12-10T01:00:58.957Z,8
2018-12-10T01:11:02.362Z,8.1
2018-12-10T01:21:05.796Z,8
2018-12-10T01:31:09.199Z,8
2018-12-10T01:41:12.686Z,7.7
2018-12-10T01:51:16.109Z,7.9
2018-12-10T02:01:19.517Z,7.8
2018-12-10T02:11:22.943Z,7.9
2018-12-10T02:21:26.394Z,7.9
2018-12-10T02:31:29.804Z,7.7
2018-12-10T02:41:33.237Z,7.8
2018-12-10T02:51:36.662Z,7.7
2018-12-10T03:01:40.110Z,7.8
2018-12-10T03:11:43.598Z,7.8
2018-12-10T03:21:47.043Z,7.7
2018-12-10T03:31:50.505Z,7.8
2018-12-10T03:41:53.961Z,7.7
2018-12-10T03:51:57.409Z,7.7
2018-12-10T04:02:00.855Z,7.8
2018-12-10T04:12:04.296Z,7.8
2018-12-10T04:22:07.695Z,7.8
2018-12-10T04:32:11.095Z,7.8
2018-12-10T04:42:14.559Z,7.7
2018-12-10T04:52:17.975Z,7.7
2018-12-10T05:02:21.414Z,7.7
2018-12-10T05:12:24.817Z,7.8
2018-12-10T05:22:28.226Z,7.7
2018-12-10T05:32:31.658Z,7.8
2018-12-10T05:42:35.054Z,7.8
2018-12-10T05:52:38.502Z,7.8
2018-12-10T06:02:41.920Z,7.8
2018-12-10T06:12:45.330Z,7.8
2018-12-10T06:22:48.738Z,7.7
2018-12-10T06:32:52.166Z,7.4
2018-12-10T06:42:55.587Z,7.6
2018-12-10T06:52:58.994Z,7.5
2018-12-10T07:03:02.390Z,7.6
2018-12-10T07:13:05.783Z,7.7
2018-12-10T07:23:09.243Z,7.6
2018-12-10T07:33:12.763Z,7.5
2018-12-10T07:43:16.174Z,7.5
2018-12-10T07:53:19.575Z,7.4
2018-12-10T08:03:23.012Z,7.6
2018-12-10T08:13:26.414Z,8.1
2018-12-10T08:23:29.867Z,8
2018-12-10T08:33:33.352Z,7.9
2018-12-10T08:43:36.745Z,9.5
2018-12-10T08:53:40.162Z,9.2
2018-12-10T09:03:43.553Z,8.6
2018-12-10T09:13:46.982Z,8.5
2018-12-10T09:23:50.377Z,8.4
2018-12-10T09:33:53.799Z,8.4
2018-12-10T09:43:58.207Z,9.2
2018-12-10T09:54:01.660Z,9.2
2018-12-10T10:04:05.082Z,9.4
2018-12-10T10:14:08.534Z,9.8
2018-12-10T10:24:11.957Z,9.8
2018-12-10T10:34:15.385Z,9.4
2018-12-10T10:44:18.803Z,9.1
2018-12-10T10:54:22.298Z,9
2018-12-10T11:04:25.732Z,9
2018-12-10T11:14:29.156Z,8.8
2018-12-10T11:24:32.556Z,8.6
2018-12-10T11:34:35.986Z,8.6
2018-12-10T11:44:39.385Z,8.6
2018-12-10T11:54:42.779Z,8.7
2018-12-10T12:04:46.192Z,8.7
2018-12-10T12:14:49.602Z,8.8
2018-12-10T12:24:53.029Z,8.8
2018-12-10T12:34:56.535Z,8.9
2018-12-10T12:44:59.933Z,8.8
2018-12-10T12:55:03.336Z,8.9
2018-12-10T13:05:06.821Z,8.7
2018-12-10T13:15:10.230Z,8.8
2018-12-10T13:25:13.618Z,8.8
2018-12-10T13:35:17.102Z,9.1
2018-12-10T13:45:20.542Z,9.1
2018-12-10T13:55:28.762Z,9.2
2018-12-10T14:05:32.404Z,9.1
2018-12-10T14:15:35.830Z,9.2
2018-12-10T14:25:39.266Z,8.9
2018-12-10T14:35:42.685Z,8.8
2018-12-10T14:45:46.104Z,8.7
2018-12-10T14:55:49.511Z,8.5
2018-12-10T15:05:52.921Z,8.5
2018-12-10T15:15:56.344Z,8.7
2018-12-10T15:25:59.749Z,8.8
2018-12-10T15:36:03.179Z,8.7
2018-12-10T15:46:06.580Z,8.7
2018-12-10T15:56:09.982Z,8.7
2018-12-10T16:06:13.394Z,8.5
2018-12-10T16:16:16.812Z,8.2
2018-12-10T16:26:20.253Z,8
2018-12-10T16:36:23.679Z,7.9
2018-12-10T16:46:27.106Z,8
2018-12-10T16:56:30.517Z,8
2018-12-10T17:06:33.950Z,8.1
2018-12-10T17:16:37.383Z,7.7
2018-12-10T17:26:40.790Z,7.9
2018-12-10T17:36:44.206Z,7.9
2018-12-10T17:46:47.617Z,7.9
2018-12-10T17:56:51.014Z,7.8
2018-12-10T18:06:54.429Z,7.8
2018-12-10T18:16:57.869Z,7.7
2018-12-10T18:27:01.298Z,7.8
2018-12-10T18:37:04.732Z,7.8
2018-12-10T18:47:08.166Z,7.7
2018-12-10T18:57:11.600Z,7.6
2018-12-10T19:07:15.021Z,7.4
2018-12-10T19:17:18.574Z,7.4
2018-12-10T19:27:22.229Z,7.5
2018-12-10T19:37:25.688Z,7.4
2018-12-10T19:47:29.140Z,7.4
2018-12-10T19:57:32.554Z,7.4
2018-12-10T20:07:35.989Z,7
2018-12-10T20:17:39.410Z,7
2018-12-10T20:27:43.857Z,6.9
2018-12-10T20:37:47.443Z,7.1
2018-12-10T20:47:51.257Z,7.3
2018-12-10T20:57:54.666Z,7.1
2018-12-10T21:07:58.060Z,7.2
2018-12-10T21:18:01.484Z,7.3
2018-12-10T21:28:04.923Z,7.3
2018-12-10T21:38:08.367Z,7.4
2018-12-10T21:48:11.741Z,7.5
2018-12-10T21:58:15.154Z,7.5
2018-12-10T22:08:18.554Z,7.5
2018-12-10T22:18:22.009Z,7.4
2018-12-10T22:28:25.425Z,7.2
2018-12-10T22:38:28.829Z,7
2018-12-10T22:48:32.261Z,6.9
2018-12-10T22:58:35.671Z,6.9
2018-12-10T23:08:39.073Z,6.8
2018-12-10T23:18:42.522Z,6.9
2018-12-10T23:28:45.913Z,6.8
2018-12-10T23:38:49.312Z,6.8
2018-12-10T23:48:52.735Z,6.7
2018-12-10T23:58:56.150Z,6.6
